sensor_id;sensor_type;location;lat;lon;timestamp;temperature;humidity
52435;DHT22;38354;52.892;6.148;2022-09-09T03:01:42;14.50;99.90
52435;DHT22;38354;52.892;6.148;2022-09-09T03:04:09;14.50;99.90
52435;DHT22;38354;52.892;6.148;2022-09-09T03:06:36;14.40;99.90
52435;DHT22;38354;52.892;6.148;2022-09-09T03:09:02;14.50;99.90
52435;DHT22;38354;52.892;6.148;2022-09-09T03:11:28;14.50;99.90
52435;DHT22;38354;52.892;6.148;2022-09-09T03:13:54;14.50;99.90
52435;DHT22;38354;52.892;6.148;2022-09-09T03:16:22;14.50;99.90
52435;DHT22;38354;52.892;6.148;2022-09-09T03:18:48;14.50;99.90
52435;DHT22;38354;52.892;6.148;2022-09-09T03:21:14;14.50;99.90
52435;DHT22;38354;52.892;6.148;2022-09-09T03:23:40;14.50;99.90
52435;DHT22;38354;52.892;6.148;2022-09-09T03:26:06;14.50;99.90
52435;DHT22;38354;52.892;6.148;2022-09-09T03:28:31;14.50;99.90
52435;DHT22;38354;52.892;6.148;2022-09-09T03:31:05;14.50;99.90
52435;DHT22;38354;52.892;6.148;2022-09-09T03:33:31;14.50;99.90
52435;DHT22;38354;52.892;6.148;2022-09-09T03:35:57;14.50;99.90
52435;DHT22;38354;52.892;6.148;2022-09-09T03:38:24;14.50;99.90
52435;DHT22;38354;52.892;6.148;2022-09-09T03:40:53;14.50;99.90
52435;DHT22;38354;52.892;6.148;2022-09-09T03:43:24;14.50;99.90
52435;DHT22;38354;52.892;6.148;2022-09-09T03:45:50;14.50;99.90
52435;DHT22;38354;52.892;6.148;2022-09-09T03:48:17;14.50;99.90
52435;DHT22;38354;52.892;6.148;2022-09-09T03:50:48;14.50;99.90
52435;DHT22;38354;52.892;6.148;2022-09-09T03:53:15;14.50;99.90
52435;DHT22;38354;52.892;6.148;2022-09-09T03:55:52;14.40;99.90
52435;DHT22;38354;52.892;6.148;2022-09-09T03:58:20;14.50;99.90
52435;DHT22;38354;52.892;6.148;2022-09-09T04:00:59;14.40;99.90
52435;DHT22;38354;52.892;6.148;2022-09-09T04:03:25;14.40;99.90
52435;DHT22;38354;52.892;6.148;2022-09-09T04:05:52;14.50;99.90
52435;DHT22;38354;52.892;6.148;2022-09-09T04:08:18;14.40;99.90
52435;DHT22;38354;52.892;6.148;2022-09-09T04:10:48;14.40;99.90
52435;DHT22;38354;52.892;6.148;2022-09-09T04:13:16;14.40;99.90
52435;DHT22;38354;52.892;6.148;2022-09-09T04:15:43;14.50;99.90
52435;DHT22;38354;52.892;6.148;2022-09-09T04:18:10;14.40;99.90
52435;DHT22;38354;52.892;6.148;2022-09-09T04:20:36;14.40;99.90
52435;DHT22;38354;52.892;6.148;2022-09-09T04:23:01;14.40;99.90
52435;DHT22;38354;52.892;6.148;2022-09-09T04:25:27;14.40;99.90
52435;DHT22;38354;52.892;6.148;2022-09-09T04:27:54;14.40;99.90
52435;DHT22;38354;52.892;6.148;2022-09-09T04:30:20;14.40;99.90
52435;DHT22;38354;52.892;6.148;2022-09-09T04:32:46;14.40;99.90
52435;DHT22;38354;52.892;6.148;2022-09-09T04:35:12;14.40;99.90
52435;DHT22;38354;52.892;6.148;2022-09-09T04:37:38;14.40;99.90
52435;DHT22;38354;52.892;6.148;2022-09-09T04:40:03;14.40;99.90
52435;DHT22;38354;52.892;6.148;2022-09-09T04:42:30;14.30;99.90
52435;DHT22;38354;52.892;6.148;2022-09-09T04:44:55;14.30;99.90
52435;DHT22;38354;52.892;6.148;2022-09-09T04:47:21;14.30;99.90
52435;DHT22;38354;52.892;6.148;2022-09-09T04:49:46;14.30;99.90
52435;DHT22;38354;52.892;6.148;2022-09-09T04:52:13;14.30;99.90
52435;DHT22;38354;52.892;6.148;2022-09-09T04:54:38;14.30;99.90
52435;DHT22;38354;52.892;6.148;2022-09-09T04:57:04;14.30;99.90
52435;DHT22;38354;52.892;6.148;2022-09-09T04:59:30;14.30;99.90
52435;DHT22;38354;52.892;6.148;2022-09-09T05:01:56;14.30;99.90
52435;DHT22;38354;52.892;6.148;2022-09-09T05:04:22;14.20;99.90
52435;DHT22;38354;52.892;6.148;2022-09-09T05:06:47;14.30;99.90
52435;DHT22;38354;52.892;6.148;2022-09-09T05:09:14;14.20;99.90
52435;DHT22;38354;52.892;6.148;2022-09-09T05:11:39;14.20;99.90
52435;DHT22;38354;52.892;6.148;2022-09-09T05:14:05;14.20;99.90
52435;DHT22;38354;52.892;6.148;2022-09-09T05:16:31;14.20;99.90
52435;DHT22;38354;52.892;6.148;2022-09-09T05:18:57;14.20;99.90
52435;DHT22;38354;52.892;6.148;2022-09-09T05:21:24;14.20;99.90
52435;DHT22;38354;52.892;6.148;2022-09-09T05:23:53;14.20;99.90
52435;DHT22;38354;52.892;6.148;2022-09-09T05:26:20;14.20;99.90
52435;DHT22;38354;52.892;6.148;2022-09-09T05:28:47;14.10;99.90
52435;DHT22;38354;52.892;6.148;2022-09-09T05:31:14;14.20;99.90
52435;DHT22;38354;52.892;6.148;2022-09-09T05:33:42;14.10;99.90
52435;DHT22;38354;52.892;6.148;2022-09-09T05:36:20;14.10;99.90
52435;DHT22;38354;52.892;6.148;2022-09-09T05:38:46;14.10;99.90
52435;DHT22;38354;52.892;6.148;2022-09-09T05:41:13;14.10;99.90
52435;DHT22;38354;52.892;6.148;2022-09-09T05:43:41;14.10;99.90
52435;DHT22;38354;52.892;6.148;2022-09-09T05:46:24;14.10;99.90
52435;DHT22;38354;52.892;6.148;2022-09-09T05:48:51;14.10;99.90
52435;DHT22;38354;52.892;6.148;2022-09-09T05:51:19;14.10;99.90
52435;DHT22;38354;52.892;6.148;2022-09-09T05:53:46;14.10;99.90
52435;DHT22;38354;52.892;6.148;2022-09-09T05:56:17;14.10;99.90
52435;DHT22;38354;52.892;6.148;2022-09-09T05:58:43;14.10;99.90
52435;DHT22;38354;52.892;6.148;2022-09-09T06:01:12;14.10;99.90
52435;DHT22;38354;52.892;6.148;2022-09-09T06:03:40;14.10;99.90
52435;DHT22;38354;52.892;6.148;2022-09-09T06:06:08;14.00;99.90
52435;DHT22;38354;52.892;6.148;2022-09-09T06:08:35;14.10;99.90
52435;DHT22;38354;52.892;6.148;2022-09-09T06:11:06;14.10;99.90
52435;DHT22;38354;52.892;6.148;2022-09-09T06:13:32;14.10;99.90
52435;DHT22;38354;52.892;6.148;2022-09-09T06:15:58;14.10;99.90
52435;DHT22;38354;52.892;6.148;2022-09-09T06:18:25;14.10;99.90
52435;DHT22;38354;52.892;6.148;2022-09-09T06:21:02;14.00;99.90
52435;DHT22;38354;52.892;6.148;2022-09-09T06:23:32;14.10;99.90
52435;DHT22;38354;52.892;6.148;2022-09-09T06:26:06;14.10;99.90
52435;DHT22;38354;52.892;6.148;2022-09-09T06:28:34;14.10;99.90
52435;DHT22;38354;52.892;6.148;2022-09-09T06:31:01;14.10;99.90
52435;DHT22;38354;52.892;6.148;2022-09-09T06:33:32;14.10;99.90
52435;DHT22;38354;52.892;6.148;2022-09-09T06:36:00;14.10;99.90
52435;DHT22;38354;52.892;6.148;2022-09-09T06:38:27;14.00;99.90
52435;DHT22;38354;52.892;6.148;2022-09-09T06:40:58;14.00;99.90
52435;DHT22;38354;52.892;6.148;2022-09-09T06:43:25;14.10;99.90
52435;DHT22;38354;52.892;6.148;2022-09-09T06:45:59;14.10;99.90
52435;DHT22;38354;52.892;6.148;2022-09-09T06:48:25;14.10;99.90
52435;DHT22;38354;52.892;6.148;2022-09-09T06:51:05;14.10;99.90
52435;DHT22;38354;52.892;6.148;2022-09-09T06:53:35;14.10;99.90
52435;DHT22;38354;52.892;6.148;2022-09-09T06:58:39;14.10;99.90
52435;DHT22;38354;52.892;6.148;2022-09-09T07:01:08;14.10;99.90
52435;DHT22;38354;52.892;6.148;2022-09-09T07:03:35;14.20;99.90
52435;DHT22;38354;52.892;6.148;2022-09-09T07:06:01;14.20;99.90
52435;DHT22;38354;52.892;6.148;2022-09-09T07:08:27;14.20;99.90
52435;DHT22;38354;52.892;6.148;2022-09-09T07:11:02;14.20;99.90
52435;DHT22;38354;52.892;6.148;2022-09-09T07:13:30;14.20;99.90
52435;DHT22;38354;52.892;6.148;2022-09-09T07:16:06;14.30;99.90
52435;DHT22;38354;52.892;6.148;2022-09-09T07:18:32;14.30;99.90
52435;DHT22;38354;52.892;6.148;2022-09-09T07:20:58;14.30;99.90
52435;DHT22;38354;52.892;6.148;2022-09-09T07:23:24;14.30;99.90
52435;DHT22;38354;52.892;6.148;2022-09-09T07:25:50;14.40;99.90
52435;DHT22;38354;52.892;6.148;2022-09-09T07:28:17;14.40;99.90
52435;DHT22;38354;52.892;6.148;2022-09-09T07:30:43;14.40;99.90
52435;DHT22;38354;52.892;6.148;2022-09-09T07:33:09;14.50;99.90
52435;DHT22;38354;52.892;6.148;2022-09-09T07:35:35;14.60;99.90
52435;DHT22;38354;52.892;6.148;2022-09-09T07:38:03;14.60;99.90
52435;DHT22;38354;52.892;6.148;2022-09-09T07:40:32;14.60;99.90
52435;DHT22;38354;52.892;6.148;2022-09-09T07:42:59;14.80;99.90
52435;DHT22;38354;52.892;6.148;2022-09-09T07:45:25;14.80;99.90
52435;DHT22;38354;52.892;6.148;2022-09-09T07:47:53;14.90;99.90
52435;DHT22;38354;52.892;6.148;2022-09-09T07:50:19;14.90;99.90
52435;DHT22;38354;52.892;6.148;2022-09-09T07:52:44;15.00;99.90
52435;DHT22;38354;52.892;6.148;2022-09-09T07:55:10;15.10;99.90
52435;DHT22;38354;52.892;6.148;2022-09-09T07:57:36;15.20;99.90
52435;DHT22;38354;52.892;6.148;2022-09-09T08:00:03;15.20;99.90
52435;DHT22;38354;52.892;6.148;2022-09-09T08:02:29;15.30;99.90
52435;DHT22;38354;52.892;6.148;2022-09-09T08:04:55;15.40;99.90
52435;DHT22;38354;52.892;6.148;2022-09-09T08:07:22;15.50;99.90
52435;DHT22;38354;52.892;6.148;2022-09-09T08:09:47;15.60;99.90
52435;DHT22;38354;52.892;6.148;2022-09-09T08:12:14;15.70;99.90
52435;DHT22;38354;52.892;6.148;2022-09-09T08:14:40;15.80;99.90
52435;DHT22;38354;52.892;6.148;2022-09-09T08:17:06;15.90;99.90
52435;DHT22;38354;52.892;6.148;2022-09-09T08:19:32;15.90;99.90
52435;DHT22;38354;52.892;6.148;2022-09-09T08:22:01;15.90;99.90
52435;DHT22;38354;52.892;6.148;2022-09-09T08:24:28;16.00;99.90
52435;DHT22;38354;52.892;6.148;2022-09-09T08:26:54;16.10;99.90
52435;DHT22;38354;52.892;6.148;2022-09-09T08:29:22;16.10;99.90
52435;DHT22;38354;52.892;6.148;2022-09-09T08:31:50;16.20;99.90
52435;DHT22;38354;52.892;6.148;2022-09-09T08:34:17;16.20;99.90
52435;DHT22;38354;52.892;6.148;2022-09-09T08:36:45;16.30;99.90
52435;DHT22;38354;52.892;6.148;2022-09-09T08:39:15;16.30;99.90
52435;DHT22;38354;52.892;6.148;2022-09-09T08:52:49;16.50;99.90
52435;DHT22;38354;52.892;6.148;2022-09-09T08:57:53;16.70;99.90
52435;DHT22;38354;52.892;6.148;2022-09-09T09:00:20;16.70;99.90
52435;DHT22;38354;52.892;6.148;2022-09-09T09:05:59;16.90;99.90
52435;DHT22;38354;52.892;6.148;2022-09-09T09:08:37;17.00;99.90
52435;DHT22;38354;52.892;6.148;2022-09-09T09:11:06;17.00;99.90
52435;DHT22;38354;52.892;6.148;2022-09-09T09:16:27;17.00;99.90
52435;DHT22;38354;52.892;6.148;2022-09-09T09:18:54;17.00;99.90
52435;DHT22;38354;52.892;6.148;2022-09-09T09:23:59;17.00;99.90
52435;DHT22;38354;52.892;6.148;2022-09-09T09:26:34;17.00;99.90
52435;DHT22;38354;52.892;6.148;2022-09-09T09:29:09;17.00;99.90
52435;DHT22;38354;52.892;6.148;2022-09-09T09:31:35;17.10;99.90
52435;DHT22;38354;52.892;6.148;2022-09-09T09:34:01;17.20;99.90
52435;DHT22;38354;52.892;6.148;2022-09-09T09:37:07;17.30;99.90
52435;DHT22;38354;52.892;6.148;2022-09-09T09:39:37;17.40;99.90
52435;DHT22;38354;52.892;6.148;2022-09-09T09:42:16;17.50;99.90
52435;DHT22;38354;52.892;6.148;2022-09-09T09:44:43;17.50;99.90
52435;DHT22;38354;52.892;6.148;2022-09-09T09:47:17;17.60;99.90
52435;DHT22;38354;52.892;6.148;2022-09-09T09:50:02;17.60;99.90
52435;DHT22;38354;52.892;6.148;2022-09-09T09:52:30;17.70;99.90
52435;DHT22;38354;52.892;6.148;2022-09-09T09:54:57;17.80;99.90
52435;DHT22;38354;52.892;6.148;2022-09-09T09:57:27;17.90;99.90
52435;DHT22;38354;52.892;6.148;2022-09-09T10:00:15;18.00;99.90
52435;DHT22;38354;52.892;6.148;2022-09-09T10:02:44;18.00;99.90
52435;DHT22;38354;52.892;6.148;2022-09-09T10:07:41;18.10;99.90
52435;DHT22;38354;52.892;6.148;2022-09-09T10:10:13;18.10;99.90
52435;DHT22;38354;52.892;6.148;2022-09-09T10:13:04;18.20;99.90
52435;DHT22;38354;52.892;6.148;2022-09-09T10:15:56;18.40;99.90
52435;DHT22;38354;52.892;6.148;2022-09-09T10:34:28;18.00;99.90
52435;DHT22;38354;52.892;6.148;2022-09-09T10:36:58;18.00;99.90
52435;DHT22;38354;52.892;6.148;2022-09-09T10:39:39;18.00;99.90
52435;DHT22;38354;52.892;6.148;2022-09-09T10:42:15;18.00;99.90
52435;DHT22;38354;52.892;6.148;2022-09-09T10:55:45;17.50;99.90
52435;DHT22;38354;52.892;6.148;2022-09-09T10:59:11;17.40;99.90
52435;DHT22;38354;52.892;6.148;2022-09-09T11:01:18;17.30;99.90
52435;DHT22;38354;52.892;6.148;2022-09-09T11:03:58;17.30;99.90
52435;DHT22;38354;52.892;6.148;2022-09-09T11:06:36;17.30;99.90
52435;DHT22;38354;52.892;6.148;2022-09-09T11:09:03;17.40;99.90
52435;DHT22;38354;52.892;6.148;2022-09-09T11:11:35;17.30;99.90
52435;DHT22;38354;52.892;6.148;2022-09-09T11:14:49;17.30;99.90
52435;DHT22;38354;52.892;6.148;2022-09-09T11:17:23;17.20;99.90
52435;DHT22;38354;52.892;6.148;2022-09-09T11:19:49;17.20;99.90
52435;DHT22;38354;52.892;6.148;2022-09-09T11:22:37;17.20;99.90
52435;DHT22;38354;52.892;6.148;2022-09-09T11:25:30;17.10;99.90
52435;DHT22;38354;52.892;6.148;2022-09-09T11:31:03;17.10;99.90
52435;DHT22;38354;52.892;6.148;2022-09-09T11:38:51;17.60;99.90
52435;DHT22;38354;52.892;6.148;2022-09-09T11:41:19;17.90;99.90
52435;DHT22;38354;52.892;6.148;2022-09-09T11:43:51;18.10;99.90
52435;DHT22;38354;52.892;6.148;2022-09-09T11:46:23;18.20;99.90
52435;DHT22;38354;52.892;6.148;2022-09-09T11:49:04;18.30;99.90
52435;DHT22;38354;52.892;6.148;2022-09-09T11:51:32;18.30;99.90
52435;DHT22;38354;52.892;6.148;2022-09-09T11:54:25;18.40;99.90
52435;DHT22;38354;52.892;6.148;2022-09-09T11:56:49;18.50;99.90
52435;DHT22;38354;52.892;6.148;2022-09-09T11:59:32;18.60;99.90
52435;DHT22;38354;52.892;6.148;2022-09-09T12:02:14;18.50;99.90
52435;DHT22;38354;52.892;6.148;2022-09-09T12:07:26;18.50;99.90
52435;DHT22;38354;52.892;6.148;2022-09-09T12:10:20;18.30;99.90
52435;DHT22;38354;52.892;6.148;2022-09-09T12:12:47;18.40;99.90
52435;DHT22;38354;52.892;6.148;2022-09-09T12:15:20;18.40;99.90
52435;DHT22;38354;52.892;6.148;2022-09-09T12:17:52;18.50;99.90
52435;DHT22;38354;52.892;6.148;2022-09-09T12:20:33;18.50;99.90
52435;DHT22;38354;52.892;6.148;2022-09-09T12:23:22;18.40;99.90
52435;DHT22;38354;52.892;6.148;2022-09-09T12:25:58;18.30;99.90
52435;DHT22;38354;52.892;6.148;2022-09-09T12:29:02;18.30;99.90
52435;DHT22;38354;52.892;6.148;2022-09-09T12:31:40;18.30;99.90
52435;DHT22;38354;52.892;6.148;2022-09-09T12:34:40;18.30;99.90
52435;DHT22;38354;52.892;6.148;2022-09-09T12:37:28;18.30;99.90
52435;DHT22;38354;52.892;6.148;2022-09-09T12:39:57;18.00;99.90
52435;DHT22;38354;52.892;6.148;2022-09-09T12:42:23;17.80;99.90
52435;DHT22;38354;52.892;6.148;2022-09-09T12:45:01;17.70;99.90
52435;DHT22;38354;52.892;6.148;2022-09-09T12:48:00;17.80;99.90
52435;DHT22;38354;52.892;6.148;2022-09-09T12:50:32;18.10;99.90
52435;DHT22;38354;52.892;6.148;2022-09-09T12:53:00;18.30;99.90
52435;DHT22;38354;52.892;6.148;2022-09-09T12:55:32;18.60;99.90
52435;DHT22;38354;52.892;6.148;2022-09-09T12:58:04;18.80;99.90
52435;DHT22;38354;52.892;6.148;2022-09-09T13:00:32;18.90;99.90
52435;DHT22;38354;52.892;6.148;2022-09-09T13:03:13;18.90;99.90
52435;DHT22;38354;52.892;6.148;2022-09-09T13:05:39;18.80;99.90
52435;DHT22;38354;52.892;6.148;2022-09-09T13:08:08;18.60;99.90
52435;DHT22;38354;52.892;6.148;2022-09-09T13:10:43;18.50;99.90
52435;DHT22;38354;52.892;6.148;2022-09-09T13:13:16;18.40;99.90
52435;DHT22;38354;52.892;6.148;2022-09-09T13:15:52;18.30;99.90
52435;DHT22;38354;52.892;6.148;2022-09-09T13:18:27;18.30;99.90
52435;DHT22;38354;52.892;6.148;2022-09-09T13:20:54;18.40;99.90
52435;DHT22;38354;52.892;6.148;2022-09-09T13:23:21;18.50;99.90
52435;DHT22;38354;52.892;6.148;2022-09-09T13:25:59;18.60;99.90
52435;DHT22;38354;52.892;6.148;2022-09-09T13:28:27;18.80;99.90
52435;DHT22;38354;52.892;6.148;2022-09-09T13:31:04;19.00;99.90
52435;DHT22;38354;52.892;6.148;2022-09-09T13:33:36;19.20;99.90
52435;DHT22;38354;52.892;6.148;2022-09-09T13:36:10;19.30;99.90
52435;DHT22;38354;52.892;6.148;2022-09-09T13:41:41;19.30;99.90
52435;DHT22;38354;52.892;6.148;2022-09-09T13:44:19;19.20;99.90
52435;DHT22;38354;52.892;6.148;2022-09-09T13:46:45;19.20;99.90
52435;DHT22;38354;52.892;6.148;2022-09-09T13:51:45;19.60;99.90
52435;DHT22;38354;52.892;6.148;2022-09-09T13:54:12;19.70;99.90
52435;DHT22;38354;52.892;6.148;2022-09-09T13:56:40;19.70;99.90
52435;DHT22;38354;52.892;6.148;2022-09-09T13:59:12;19.70;99.90
52435;DHT22;38354;52.892;6.148;2022-09-09T14:01:38;19.70;99.90
52435;DHT22;38354;52.892;6.148;2022-09-09T14:04:04;19.50;99.90
52435;DHT22;38354;52.892;6.148;2022-09-09T14:06:32;19.50;99.90
52435;DHT22;38354;52.892;6.148;2022-09-09T14:08:58;19.30;99.90
52435;DHT22;38354;52.892;6.148;2022-09-09T14:11:24;19.10;99.90
52435;DHT22;38354;52.892;6.148;2022-09-09T14:13:50;19.00;99.90
52435;DHT22;38354;52.892;6.148;2022-09-09T14:16:19;18.90;99.90
52435;DHT22;38354;52.892;6.148;2022-09-09T14:18:45;18.90;99.90
52435;DHT22;38354;52.892;6.148;2022-09-09T14:21:11;18.80;99.90
52435;DHT22;38354;52.892;6.148;2022-09-09T14:23:37;18.70;99.90
52435;DHT22;38354;52.892;6.148;2022-09-09T14:26:07;18.70;99.90
52435;DHT22;38354;52.892;6.148;2022-09-09T14:28:33;18.60;99.90
52435;DHT22;38354;52.892;6.148;2022-09-09T14:31:01;18.60;99.90
52435;DHT22;38354;52.892;6.148;2022-09-09T14:33:27;18.50;99.90
52435;DHT22;38354;52.892;6.148;2022-09-09T14:36:02;18.40;99.90
52435;DHT22;38354;52.892;6.148;2022-09-09T14:38:29;18.40;99.90
52435;DHT22;38354;52.892;6.148;2022-09-09T14:40:55;18.30;99.90
52435;DHT22;38354;52.892;6.148;2022-09-09T14:43:21;18.30;99.90
52435;DHT22;38354;52.892;6.148;2022-09-09T14:45:47;18.20;99.90
52435;DHT22;38354;52.892;6.148;2022-09-09T14:48:14;18.10;99.90
52435;DHT22;38354;52.892;6.148;2022-09-09T14:50:40;18.00;99.90
52435;DHT22;38354;52.892;6.148;2022-09-09T14:53:07;18.00;99.90
52435;DHT22;38354;52.892;6.148;2022-09-09T14:55:34;18.00;99.90
52435;DHT22;38354;52.892;6.148;2022-09-09T14:58:00;17.90;99.90
52435;DHT22;38354;52.892;6.148;2022-09-09T15:00:25;17.90;99.90
52435;DHT22;38354;52.892;6.148;2022-09-09T15:02:54;17.90;99.90
52435;DHT22;38354;52.892;6.148;2022-09-09T15:05:21;17.90;99.90
52435;DHT22;38354;52.892;6.148;2022-09-09T15:07:47;17.90;99.90
52435;DHT22;38354;52.892;6.148;2022-09-09T15:10:14;17.90;99.90
52435;DHT22;38354;52.892;6.148;2022-09-09T15:12:40;17.90;99.90
52435;DHT22;38354;52.892;6.148;2022-09-09T15:15:07;18.00;99.90
52435;DHT22;38354;52.892;6.148;2022-09-09T15:17:34;18.00;99.90
52435;DHT22;38354;52.892;6.148;2022-09-09T15:20:03;18.10;99.90
52435;DHT22;38354;52.892;6.148;2022-09-09T15:22:28;18.10;99.90
52435;DHT22;38354;52.892;6.148;2022-09-09T15:24:54;18.10;99.90
52435;DHT22;38354;52.892;6.148;2022-09-09T15:27:20;18.10;99.90
52435;DHT22;38354;52.892;6.148;2022-09-09T15:29:45;18.10;99.90
52435;DHT22;38354;52.892;6.148;2022-09-09T15:32:12;18.00;99.90
52435;DHT22;38354;52.892;6.148;2022-09-09T15:34:37;18.00;99.90
52435;DHT22;38354;52.892;6.148;2022-09-09T15:37:03;18.00;99.90
52435;DHT22;38354;52.892;6.148;2022-09-09T15:39:29;17.90;99.90
52435;DHT22;38354;52.892;6.148;2022-09-09T15:41:54;17.90;99.90
52435;DHT22;38354;52.892;6.148;2022-09-09T15:44:20;18.00;99.90
52435;DHT22;38354;52.892;6.148;2022-09-09T15:46:50;17.90;99.90
52435;DHT22;38354;52.892;6.148;2022-09-09T15:49:21;17.90;99.90
52435;DHT22;38354;52.892;6.148;2022-09-09T15:51:54;17.90;99.90
52435;DHT22;38354;52.892;6.148;2022-09-09T15:54:22;17.80;99.90
52435;DHT22;38354;52.892;6.148;2022-09-09T15:56:54;17.70;99.90
52435;DHT22;38354;52.892;6.148;2022-09-09T15:59:22;17.70;99.90
52435;DHT22;38354;52.892;6.148;2022-09-09T16:01:48;17.60;99.90
52435;DHT22;38354;52.892;6.148;2022-09-09T16:04:17;17.60;99.90
52435;DHT22;38354;52.892;6.148;2022-09-09T16:06:50;17.60;99.90
52435;DHT22;38354;52.892;6.148;2022-09-09T16:09:16;17.60;99.90
52435;DHT22;38354;52.892;6.148;2022-09-09T16:11:42;17.60;99.90
52435;DHT22;38354;52.892;6.148;2022-09-09T16:14:08;17.60;99.90
52435;DHT22;38354;52.892;6.148;2022-09-09T16:16:34;17.60;99.90
52435;DHT22;38354;52.892;6.148;2022-09-09T16:19:04;17.70;99.90
52435;DHT22;38354;52.892;6.148;2022-09-09T16:21:36;17.70;99.90
52435;DHT22;38354;52.892;6.148;2022-09-09T16:24:04;17.80;99.90
52435;DHT22;38354;52.892;6.148;2022-09-09T16:26:33;17.80;99.90
52435;DHT22;38354;52.892;6.148;2022-09-09T16:29:00;17.80;99.90
52435;DHT22;38354;52.892;6.148;2022-09-09T16:31:28;17.80;99.90
52435;DHT22;38354;52.892;6.148;2022-09-09T16:33:54;17.70;99.90
52435;DHT22;38354;52.892;6.148;2022-09-09T16:36:26;17.70;99.90
52435;DHT22;38354;52.892;6.148;2022-09-09T16:38:53;17.60;99.90
52435;DHT22;38354;52.892;6.148;2022-09-09T16:41:20;17.60;99.90
52435;DHT22;38354;52.892;6.148;2022-09-09T16:43:46;17.50;99.90
52435;DHT22;38354;52.892;6.148;2022-09-09T16:46:13;17.50;99.90
52435;DHT22;38354;52.892;6.148;2022-09-09T16:48:41;17.50;99.90
52435;DHT22;38354;52.892;6.148;2022-09-09T16:51:11;17.50;99.90
52435;DHT22;38354;52.892;6.148;2022-09-09T16:53:38;17.50;99.90
52435;DHT22;38354;52.892;6.148;2022-09-09T16:56:09;17.40;99.90
52435;DHT22;38354;52.892;6.148;2022-09-09T16:58:35;17.40;99.90
52435;DHT22;38354;52.892;6.148;2022-09-09T17:01:01;17.40;99.90
52435;DHT22;38354;52.892;6.148;2022-09-09T17:03:30;17.40;99.90
52435;DHT22;38354;52.892;6.148;2022-09-09T17:05:57;17.40;99.90
52435;DHT22;38354;52.892;6.148;2022-09-09T17:08:23;17.40;99.90
52435;DHT22;38354;52.892;6.148;2022-09-09T17:10:49;17.40;99.90
52435;DHT22;38354;52.892;6.148;2022-09-09T17:13:15;17.40;99.90
52435;DHT22;38354;52.892;6.148;2022-09-09T17:15:45;17.40;99.90
52435;DHT22;38354;52.892;6.148;2022-09-09T17:18:12;17.40;99.90
52435;DHT22;38354;52.892;6.148;2022-09-09T17:20:39;17.30;99.90
52435;DHT22;38354;52.892;6.148;2022-09-09T17:23:09;17.30;99.90
52435;DHT22;38354;52.892;6.148;2022-09-09T17:25:35;17.30;99.90
52435;DHT22;38354;52.892;6.148;2022-09-09T17:28:02;17.20;99.90
52435;DHT22;38354;52.892;6.148;2022-09-09T17:30:34;17.20;99.90
52435;DHT22;38354;52.892;6.148;2022-09-09T17:33:00;17.10;99.90
52435;DHT22;38354;52.892;6.148;2022-09-09T17:35:26;17.10;99.90
52435;DHT22;38354;52.892;6.148;2022-09-09T17:37:55;17.10;99.90
52435;DHT22;38354;52.892;6.148;2022-09-09T17:40:21;17.10;99.90
52435;DHT22;38354;52.892;6.148;2022-09-09T17:42:47;17.00;99.90
52435;DHT22;38354;52.892;6.148;2022-09-09T17:45:13;17.00;99.90
52435;DHT22;38354;52.892;6.148;2022-09-09T17:47:39;17.00;99.90
52435;DHT22;38354;52.892;6.148;2022-09-09T17:50:05;17.00;99.90
52435;DHT22;38354;52.892;6.148;2022-09-09T17:52:32;17.00;99.90
52435;DHT22;38354;52.892;6.148;2022-09-09T17:54:57;17.00;99.90
52435;DHT22;38354;52.892;6.148;2022-09-09T17:57:23;16.90;99.90
52435;DHT22;38354;52.892;6.148;2022-09-09T17:59:50;16.90;99.90
52435;DHT22;38354;52.892;6.148;2022-09-09T18:02:15;16.90;99.90
52435;DHT22;38354;52.892;6.148;2022-09-09T18:04:41;16.80;99.90
52435;DHT22;38354;52.892;6.148;2022-09-09T18:07:07;16.90;99.90
52435;DHT22;38354;52.892;6.148;2022-09-09T18:09:33;16.80;99.90
52435;DHT22;38354;52.892;6.148;2022-09-09T18:11:59;16.80;99.90
52435;DHT22;38354;52.892;6.148;2022-09-09T18:14:29;16.80;99.90
52435;DHT22;38354;52.892;6.148;2022-09-09T18:16:56;16.80;99.90
52435;DHT22;38354;52.892;6.148;2022-09-09T18:19:24;16.70;99.90
52435;DHT22;38354;52.892;6.148;2022-09-09T18:21:51;16.70;99.90
52435;DHT22;38354;52.892;6.148;2022-09-09T18:24:19;16.60;99.90
52435;DHT22;38354;52.892;6.148;2022-09-09T18:26:46;16.60;99.90
52435;DHT22;38354;52.892;6.148;2022-09-09T18:29:18;16.60;99.90
52435;DHT22;38354;52.892;6.148;2022-09-09T18:31:45;16.60;99.90
52435;DHT22;38354;52.892;6.148;2022-09-09T18:34:13;16.50;99.90
52435;DHT22;38354;52.892;6.148;2022-09-09T18:36:46;16.50;99.90
52435;DHT22;38354;52.892;6.148;2022-09-09T18:39:14;16.50;99.90
52435;DHT22;38354;52.892;6.148;2022-09-09T18:41:43;16.40;99.90
52435;DHT22;38354;52.892;6.148;2022-09-09T18:44:12;16.40;99.90
52435;DHT22;38354;52.892;6.148;2022-09-09T18:46:40;16.40;99.90
52435;DHT22;38354;52.892;6.148;2022-09-09T18:49:07;16.40;99.90
52435;DHT22;38354;52.892;6.148;2022-09-09T18:51:33;16.40;99.90
52435;DHT22;38354;52.892;6.148;2022-09-09T18:54:07;16.40;99.90
52435;DHT22;38354;52.892;6.148;2022-09-09T18:56:34;16.40;99.90
52435;DHT22;38354;52.892;6.148;2022-09-09T18:59:02;16.40;99.90
52435;DHT22;38354;52.892;6.148;2022-09-09T19:01:28;16.40;99.90
52435;DHT22;38354;52.892;6.148;2022-09-09T19:03:55;16.30;99.90
52435;DHT22;38354;52.892;6.148;2022-09-09T19:06:26;16.30;99.90
52435;DHT22;38354;52.892;6.148;2022-09-09T19:08:53;16.30;99.90
52435;DHT22;38354;52.892;6.148;2022-09-09T19:11:21;16.30;99.90
52435;DHT22;38354;52.892;6.148;2022-09-09T19:13:51;16.30;99.90
52435;DHT22;38354;52.892;6.148;2022-09-09T19:16:18;16.20;99.90
52435;DHT22;38354;52.892;6.148;2022-09-09T19:18:44;16.20;99.90
52435;DHT22;38354;52.892;6.148;2022-09-09T19:21:24;16.20;99.90
52435;DHT22;38354;52.892;6.148;2022-09-09T19:23:55;16.20;99.90
52435;DHT22;38354;52.892;6.148;2022-09-09T19:26:21;16.20;99.90
52435;DHT22;38354;52.892;6.148;2022-09-09T19:28:47;16.20;99.90
52435;DHT22;38354;52.892;6.148;2022-09-09T19:31:16;16.20;99.90
52435;DHT22;38354;52.892;6.148;2022-09-09T19:33:43;16.20;99.90
52435;DHT22;38354;52.892;6.148;2022-09-09T19:36:11;16.10;99.90
52435;DHT22;38354;52.892;6.148;2022-09-09T19:38:37;16.10;99.90
52435;DHT22;38354;52.892;6.148;2022-09-09T19:41:11;16.10;99.90
52435;DHT22;38354;52.892;6.148;2022-09-09T19:43:38;16.10;99.90
52435;DHT22;38354;52.892;6.148;2022-09-09T19:46:06;16.10;99.90
52435;DHT22;38354;52.892;6.148;2022-09-09T19:48:34;16.10;99.90
52435;DHT22;38354;52.892;6.148;2022-09-09T19:51:07;16.10;99.90
52435;DHT22;38354;52.892;6.148;2022-09-09T19:53:39;16.00;99.90
52435;DHT22;38354;52.892;6.148;2022-09-09T19:56:06;16.00;99.90